createdAt,value
2023-07-31T00:00:19.065Z,7.5
2023-07-31T00:05:25.448Z,7.4
2023-07-31T00:10:31.799Z,7.4
2023-07-31T00:15:38.260Z,7.4
2023-07-31T00:20:44.498Z,7.4
2023-07-31T00:25:50.860Z,7.4
2023-07-31T00:30:57.223Z,7.4
2023-07-31T00:36:03.562Z,7.4
2023-07-31T00:41:09.929Z,7.4
2023-07-31T00:46:16.389Z,7.4
2023-07-31T00:51:22.661Z,7.4
2023-07-31T00:56:29.008Z,7.4
2023-07-31T01:01:37.048Z,7.2
2023-07-31T01:06:43.340Z,7.4
2023-07-31T01:11:49.743Z,7.2
2023-07-31T01:22:02.394Z,7.2
2023-07-31T01:27:08.740Z,7.2
2023-07-31T01:32:15.153Z,7.2
2023-07-31T01:37:21.488Z,7.2
2023-07-31T01:47:35.805Z,7.2
2023-07-31T01:52:42.157Z,7.2
2023-07-31T01:57:48.494Z,7.2
2023-07-31T02:02:54.928Z,7.2
2023-07-31T02:08:02.035Z,7.2
2023-07-31T02:13:09.197Z,7.2
2023-07-31T02:18:15.549Z,7.2
2023-07-31T02:23:21.886Z,7.2
2023-07-31T02:28:28.303Z,7.2
2023-07-31T02:33:34.596Z,7.1
2023-07-31T02:38:40.967Z,7.2
2023-07-31T02:43:47.320Z,7.2
2023-07-31T02:48:53.697Z,7.2
2023-07-31T02:54:00.038Z,7.1
2023-07-31T02:59:06.413Z,7.1
2023-07-31T03:04:15.739Z,7.1
2023-07-31T03:09:20.701Z,7.1
2023-07-31T03:14:27.077Z,7.1
2023-07-31T03:19:33.423Z,7.1
2023-07-31T03:29:47.733Z,7.1
2023-07-31T03:34:54.092Z,7.1
2023-07-31T03:40:00.460Z,7.1
2023-07-31T03:45:06.802Z,7.1
2023-07-31T03:50:13.224Z,7
2023-07-31T03:55:19.533Z,7
2023-07-31T04:05:32.261Z,7
2023-07-31T04:10:38.604Z,7
2023-07-31T04:15:44.971Z,7.1
2023-07-31T04:20:51.309Z,7
2023-07-31T04:25:57.729Z,7
2023-07-31T04:36:11.994Z,7.1
2023-07-31T04:41:18.368Z,7.1
2023-07-31T04:46:24.792Z,7.1
2023-07-31T04:51:31.077Z,7.1
2023-07-31T04:56:37.806Z,7.1
2023-07-31T05:01:45.446Z,7.1
2023-07-31T05:06:51.739Z,7.1
2023-07-31T05:11:58.110Z,7.1
2023-07-31T05:17:04.457Z,7.1
2023-07-31T05:22:10.808Z,7.1
2023-07-31T05:27:17.164Z,7.1
2023-07-31T05:32:23.570Z,7.1
2023-07-31T05:37:29.883Z,6.9
2023-07-31T05:47:44.262Z,6.9
2023-07-31T05:52:50.543Z,7.1
2023-07-31T05:57:58.503Z,6.9
2023-07-31T06:03:03.298Z,6.9
2023-07-31T06:08:11.216Z,6.9
2023-07-31T06:13:17.619Z,6.9
2023-07-31T06:18:23.922Z,6.8
2023-07-31T06:23:30.300Z,6.9
2023-07-31T06:28:36.718Z,6.8
2023-07-31T06:33:43.048Z,6.8
2023-07-31T06:38:50.992Z,6.8
2023-07-31T06:43:57.354Z,6.8
2023-07-31T06:49:03.723Z,6.8
2023-07-31T06:54:10.088Z,6.8
2023-07-31T06:59:18.011Z,6.8
2023-07-31T07:04:24.384Z,6.8
2023-07-31T07:09:30.733Z,6.8
2023-07-31T07:14:37.107Z,6.8
2023-07-31T07:19:43.452Z,6.8
2023-07-31T07:24:49.836Z,6.8
2023-07-31T07:29:56.174Z,6.5
2023-07-31T07:50:21.603Z,6.3
2023-07-31T07:55:28.018Z,6.4
2023-07-31T08:00:34.367Z,6.3
2023-07-31T08:05:40.681Z,6
2023-07-31T08:15:55.006Z,5.8
2023-07-31T08:21:01.359Z,5.7
2023-07-31T08:26:07.761Z,5.7
2023-07-31T08:31:14.160Z,5.6
2023-07-31T08:36:20.457Z,5.7
2023-07-31T08:41:28.432Z,5.7
2023-07-31T08:46:34.833Z,5.8
2023-07-31T08:51:41.154Z,5.8
2023-07-31T08:56:47.487Z,5.8
2023-07-31T09:01:53.876Z,5.9
2023-07-31T09:07:00.212Z,5.9
2023-07-31T09:12:06.664Z,5.9
2023-07-31T09:22:20.876Z,6.1
2023-07-31T09:27:27.235Z,6.1
2023-07-31T09:32:33.676Z,6.1
2023-07-31T09:37:39.945Z,6.1
2023-07-31T09:42:46.304Z,6.1
2023-07-31T09:47:52.740Z,6.1
2023-07-31T09:52:59.049Z,6.1
2023-07-31T09:58:05.417Z,6.1
2023-07-31T10:03:11.903Z,6.2
2023-07-31T10:08:18.097Z,6.2
2023-07-31T10:13:24.468Z,6.2
2023-07-31T10:18:30.804Z,6.2
2023-07-31T10:23:37.176Z,6.2
2023-07-31T10:33:51.492Z,6.1
2023-07-31T10:44:05.813Z,6.1
2023-07-31T10:49:12.153Z,6.1
2023-07-31T10:54:18.538Z,5.9
2023-07-31T10:59:24.883Z,5.9
2023-07-31T11:04:31.265Z,6
2023-07-31T11:09:37.598Z,6.1
2023-07-31T11:14:43.967Z,6.1
2023-07-31T11:19:50.330Z,6.2
2023-07-31T11:24:56.709Z,6.1
2023-07-31T11:30:03.037Z,6.1
2023-07-31T11:35:09.369Z,6.1
2023-07-31T11:40:15.798Z,6.1
2023-07-31T11:45:23.717Z,6.1
2023-07-31T11:50:30.090Z,6.1
2023-07-31T11:55:37.286Z,6.1
2023-07-31T12:00:42.828Z,6.1
2023-07-31T12:05:49.176Z,6.1
2023-07-31T12:16:01.854Z,6
2023-07-31T12:21:09.878Z,6.1
2023-07-31T12:26:17.766Z,6.1
2023-07-31T12:31:25.813Z,6
2023-07-31T12:36:33.700Z,6
2023-07-31T12:41:40.039Z,6
2023-07-31T12:51:52.788Z,6.1
2023-07-31T12:57:00.718Z,6.1
2023-07-31T13:02:07.087Z,6.2
2023-07-31T13:07:13.439Z,6.2
2023-07-31T13:12:19.791Z,6.2
2023-07-31T13:17:26.144Z,6.2
2023-07-31T13:22:32.507Z,6.2
2023-07-31T13:27:38.870Z,6.2
2023-07-31T13:32:45.237Z,6.2
2023-07-31T13:37:51.592Z,6.2
2023-07-31T13:42:59.519Z,6.2
2023-07-31T13:48:06.016Z,6.2
2023-07-31T13:53:12.216Z,6.2
2023-07-31T13:58:18.608Z,6.2
2023-07-31T14:03:25.034Z,6.1
2023-07-31T14:08:32.938Z,6.2
2023-07-31T14:13:39.311Z,6.2
2023-07-31T14:18:45.857Z,6.2
2023-07-31T14:23:52.005Z,6.2
2023-07-31T14:28:58.371Z,6.2
2023-07-31T14:34:04.715Z,6.2
2023-07-31T14:39:11.043Z,6.3
2023-07-31T14:44:17.422Z,6.3
2023-07-31T14:49:23.755Z,6.3
2023-07-31T14:54:30.144Z,6.3
2023-07-31T14:59:36.530Z,6.3
2023-07-31T15:04:42.855Z,6.5
2023-07-31T15:14:57.176Z,6.5
2023-07-31T15:20:05.137Z,6.5
2023-07-31T15:25:11.488Z,6.5
2023-07-31T15:30:17.826Z,6.5
2023-07-31T15:35:24.203Z,6.6
2023-07-31T15:40:30.550Z,6.6
2023-07-31T15:45:38.598Z,6.6
2023-07-31T15:50:44.858Z,6.6
2023-07-31T15:55:52.823Z,6.6
2023-07-31T16:00:59.161Z,6.6
2023-07-31T16:06:05.533Z,6.6
2023-07-31T16:11:11.911Z,6.7
2023-07-31T16:16:18.298Z,6.7
2023-07-31T16:21:26.229Z,6.6
2023-07-31T16:26:34.231Z,6.6
2023-07-31T16:31:55.281Z,6.7
2023-07-31T16:36:50.108Z,6.7
2023-07-31T16:41:58.062Z,6.7
2023-07-31T16:47:06.047Z,6.7
2023-07-31T16:52:13.992Z,6.7
2023-07-31T16:57:20.336Z,6.7
2023-07-31T17:02:26.834Z,6.7
2023-07-31T17:07:33.064Z,6.7
2023-07-31T17:12:39.377Z,6.7
2023-07-31T17:17:45.862Z,6.6
2023-07-31T17:22:52.098Z,6.6
2023-07-31T17:28:00.115Z,6.5
2023-07-31T17:33:06.479Z,6.5
2023-07-31T17:38:12.786Z,6.2
2023-07-31T17:43:20.733Z,6.1
2023-07-31T17:48:27.182Z,6
2023-07-31T17:53:33.453Z,6.1
2023-07-31T18:03:46.213Z,6
2023-07-31T18:08:52.532Z,6.1
2023-07-31T18:13:58.898Z,6.1
2023-07-31T18:19:05.237Z,6.1
2023-07-31T18:29:17.965Z,6
2023-07-31T18:34:24.313Z,6
2023-07-31T18:39:30.690Z,6
2023-07-31T18:44:37.045Z,6
2023-07-31T18:49:43.419Z,6
2023-07-31T18:54:51.349Z,6.1
2023-07-31T18:59:57.688Z,6.1
2023-07-31T19:05:04.070Z,6.1
2023-07-31T19:15:16.791Z,6.1
2023-07-31T19:20:23.125Z,6.1
2023-07-31T19:25:29.492Z,6.1
2023-07-31T19:30:35.848Z,6.1
2023-07-31T19:35:43.831Z,6.1
2023-07-31T19:40:50.170Z,6.1
2023-07-31T19:45:56.536Z,6.1
2023-07-31T19:51:02.869Z,6.1
2023-07-31T19:56:09.249Z,6.1
2023-07-31T20:01:15.647Z,6.1
2023-07-31T20:06:23.584Z,6.1
2023-07-31T20:11:31.519Z,6.1
2023-07-31T20:16:38.135Z,6.1
2023-07-31T20:21:44.213Z,6.1
2023-07-31T20:26:52.177Z,6.1
2023-07-31T20:32:00.136Z,5.9
2023-07-31T20:37:08.092Z,5.9
2023-07-31T20:42:16.068Z,5.9
2023-07-31T20:47:24.055Z,6.1
2023-07-31T20:52:32.016Z,5.9
2023-07-31T20:57:39.921Z,5.9
2023-07-31T21:02:48.034Z,5.9
2023-07-31T21:07:55.876Z,5.9
2023-07-31T21:13:02.248Z,5.9
2023-07-31T21:18:10.158Z,5.9
2023-07-31T21:23:16.574Z,6.1
2023-07-31T21:28:22.944Z,6
2023-07-31T21:33:29.242Z,6
2023-07-31T21:38:35.625Z,6
2023-07-31T21:43:42.035Z,6
2023-07-31T21:48:48.331Z,6
2023-07-31T21:53:56.268Z,6
2023-07-31T21:59:02.652Z,6
2023-07-31T22:04:09.015Z,6
2023-07-31T22:09:15.364Z,6
2023-07-31T22:14:21.752Z,6
2023-07-31T22:19:28.059Z,6
2023-07-31T22:24:34.418Z,6
2023-07-31T22:29:42.407Z,6
2023-07-31T22:34:48.738Z,6
2023-07-31T22:39:55.122Z,6
2023-07-31T22:45:01.456Z,6
2023-07-31T22:50:07.847Z,6
2023-07-31T22:55:14.281Z,6
2023-07-31T23:00:20.516Z,6
2023-07-31T23:05:26.932Z,6
2023-07-31T23:15:39.587Z,6
2023-07-31T23:20:45.964Z,6
2023-07-31T23:25:52.312Z,5.9
2023-07-31T23:30:58.680Z,5.9
2023-07-31T23:36:05.029Z,5.9
2023-07-31T23:41:12.989Z,5.9
2023-07-31T23:46:19.383Z,5.9
2023-07-31T23:51:25.725Z,5.9
2023-07-31T23:56:32.114Z,5.9
